createdAt,value
2022-12-15T00:00:34.990Z,15.81
2022-12-15T00:01:55.202Z,15.24
2022-12-15T00:03:15.915Z,15.50
2022-12-15T00:04:36.311Z,15.22
2022-12-15T00:05:56.583Z,15.58
2022-12-15T00:07:17.029Z,15.30
2022-12-15T00:08:37.715Z,15.83
2022-12-15T00:09:58.196Z,15.86
2022-12-15T00:11:21.205Z,15.23
2022-12-15T00:12:41.399Z,15.43
2022-12-15T00:14:02.567Z,15.88
2022-12-15T00:15:23.217Z,15.64
2022-12-15T00:16:43.583Z,15.87
2022-12-15T00:18:04.113Z,15.14
2022-12-15T00:19:24.341Z,15.85
2022-12-15T00:20:44.457Z,15.29
2022-12-15T00:22:04.582Z,15.07
2022-12-15T00:23:29.670Z,15.08
2022-12-15T00:24:50.159Z,15.62
2022-12-15T00:26:10.315Z,15.27
2022-12-15T00:27:30.925Z,15.67
2022-12-15T00:28:51.331Z,15.56
2022-12-15T00:30:11.563Z,16.09
2022-12-15T00:31:32.069Z,15.84
2022-12-15T00:32:52.529Z,15.88
2022-12-15T00:34:12.968Z,15.92
2022-12-15T00:35:33.491Z,15.28
2022-12-15T00:36:53.785Z,15.96
2022-12-15T00:38:13.770Z,15.46
2022-12-15T00:39:15.682Z,16.00
2022-12-15T00:40:17.662Z,15.98
2022-12-15T00:41:19.467Z,16.08
2022-12-15T00:42:21.233Z,15.59
2022-12-15T00:43:23.129Z,15.76
2022-12-15T00:44:25.185Z,15.92
2022-12-15T00:45:47.009Z,15.46
2022-12-15T00:46:54.758Z,15.62
2022-12-15T00:47:56.643Z,15.51
2022-12-15T00:48:58.969Z,15.41
2022-12-15T00:50:24.052Z,15.54
2022-12-15T00:51:44.471Z,15.44
2022-12-15T00:53:04.963Z,16.24
2022-12-15T00:54:25.432Z,15.71
2022-12-15T00:55:46.145Z,16.00
2022-12-15T00:57:06.375Z,15.40
2022-12-15T00:58:26.541Z,15.95
2022-12-15T00:59:46.725Z,15.30
2022-12-15T01:01:07.392Z,15.29
2022-12-15T01:02:27.507Z,15.65
2022-12-15T01:03:47.946Z,16.04
2022-12-15T01:05:08.399Z,15.93
2022-12-15T01:06:34.927Z,15.46
2022-12-15T01:07:55.426Z,15.75
2022-12-15T01:09:16.094Z,16.12
2022-12-15T01:10:37.806Z,15.84
2022-12-15T01:11:58.467Z,15.94
2022-12-15T01:13:18.725Z,15.39
2022-12-15T01:14:39.169Z,15.44
2022-12-15T01:15:59.895Z,16.03
2022-12-15T01:17:20.422Z,16.16
2022-12-15T01:18:41.529Z,16.16
2022-12-15T01:20:01.569Z,15.79
2022-12-15T01:21:06.247Z,16.22
2022-12-15T01:22:08.274Z,16.10
2022-12-15T01:23:10.172Z,16.13
2022-12-15T01:24:11.963Z,15.80
2022-12-15T01:25:15.103Z,15.85
2022-12-15T01:26:16.882Z,15.83
2022-12-15T01:27:18.753Z,15.66
2022-12-15T01:28:22.021Z,16.02
2022-12-15T01:29:24.598Z,15.79
2022-12-15T01:30:27.617Z,16.08
2022-12-15T01:31:29.715Z,15.93
2022-12-15T01:32:31.850Z,15.80
2022-12-15T01:33:34.003Z,16.17
2022-12-15T01:34:35.934Z,15.79
2022-12-15T01:35:38.928Z,16.00
2022-12-15T01:36:40.738Z,15.67
2022-12-15T01:37:42.568Z,16.04
2022-12-15T01:38:46.938Z,15.61
2022-12-15T01:40:20.360Z,15.99
2022-12-15T01:41:22.671Z,15.86
2022-12-15T01:42:24.591Z,16.23
2022-12-15T01:43:32.404Z,16.07
2022-12-15T01:44:36.821Z,16.29
2022-12-15T01:45:48.837Z,16.25
2022-12-15T01:46:55.428Z,15.60
2022-12-15T01:48:06.071Z,15.47
2022-12-15T01:49:23.457Z,15.78
2022-12-15T01:50:27.029Z,15.93
2022-12-15T01:51:35.834Z,15.55
2022-12-15T01:52:37.645Z,16.26
2022-12-15T01:53:55.898Z,16.22
2022-12-15T01:54:58.602Z,15.85
2022-12-15T01:56:00.822Z,15.88
2022-12-15T01:57:14.013Z,15.74
2022-12-15T01:58:20.101Z,16.35
2022-12-15T01:59:28.158Z,16.36
2022-12-15T02:00:31.059Z,16.19
2022-12-15T02:01:33.191Z,16.22
2022-12-15T02:02:40.333Z,16.36
2022-12-15T02:03:44.127Z,15.61
2022-12-15T02:04:46.400Z,16.04
2022-12-15T02:05:48.781Z,15.57
2022-12-15T02:06:50.732Z,15.66
2022-12-15T02:07:52.547Z,15.84
2022-12-15T02:08:57.174Z,15.95
2022-12-15T02:10:02.846Z,16.07
2022-12-15T02:11:10.616Z,16.36
2022-12-15T02:12:37.752Z,16.13
2022-12-15T02:14:00.968Z,16.28
2022-12-15T02:15:20.859Z,15.82
2022-12-15T02:16:54.896Z,16.25
2022-12-15T02:18:23.537Z,15.45
2022-12-15T02:19:28.213Z,15.74
2022-12-15T02:20:59.719Z,16.05
2022-12-15T02:22:10.632Z,16.31
2022-12-15T02:23:21.394Z,16.01
2022-12-15T02:24:45.977Z,15.53
2022-12-15T02:26:13.105Z,16.24
2022-12-15T02:27:21.113Z,15.47
2022-12-15T02:28:32.145Z,16.27
2022-12-15T02:29:58.443Z,16.07
2022-12-15T02:31:49.941Z,16.14
2022-12-15T02:33:07.411Z,15.44
2022-12-15T02:34:18.054Z,15.58
2022-12-15T02:35:51.409Z,15.81
2022-12-15T02:37:07.122Z,15.59
2022-12-15T02:38:09.879Z,15.49
2022-12-15T02:39:13.107Z,15.55
2022-12-15T02:40:14.888Z,16.17
2022-12-15T02:41:35.765Z,15.61
2022-12-15T02:42:44.721Z,16.16
2022-12-15T02:43:46.721Z,16.20
2022-12-15T02:44:57.595Z,16.07
2022-12-15T02:46:22.233Z,15.61
2022-12-15T02:47:46.444Z,16.05
2022-12-15T02:49:00.505Z,15.45
2022-12-15T02:50:04.977Z,15.57
2022-12-15T02:51:29.827Z,15.87
2022-12-15T02:53:10.324Z,16.33
2022-12-15T02:54:35.486Z,16.04
2022-12-15T02:56:08.119Z,15.58
2022-12-15T02:57:15.806Z,15.30
2022-12-15T02:58:42.068Z,16.08
2022-12-15T02:59:57.023Z,16.12
2022-12-15T03:01:08.300Z,15.71
2022-12-15T03:02:12.732Z,15.67
2022-12-15T03:03:20.484Z,16.08
2022-12-15T03:04:23.248Z,16.16
2022-12-15T03:05:25.915Z,15.77
2022-12-15T03:06:28.858Z,16.02
2022-12-15T03:07:30.643Z,15.57
2022-12-15T03:08:32.516Z,15.64
2022-12-15T03:09:34.509Z,15.42
2022-12-15T03:10:36.388Z,15.62
2022-12-15T03:11:38.554Z,15.90
2022-12-15T03:12:40.485Z,16.01
2022-12-15T03:13:42.250Z,15.74
2022-12-15T03:14:44.266Z,15.93
2022-12-15T03:15:46.153Z,16.23
2022-12-15T03:16:48.052Z,16.22
2022-12-15T03:17:49.913Z,16.10
2022-12-15T03:18:52.573Z,16.31
2022-12-15T03:19:54.429Z,15.82
2022-12-15T03:20:56.323Z,15.65
2022-12-15T03:21:58.182Z,15.70
2022-12-15T03:22:59.942Z,16.07
2022-12-15T03:24:01.826Z,15.52
2022-12-15T03:25:04.345Z,16.05
2022-12-15T03:26:06.707Z,15.80
2022-12-15T03:27:08.705Z,16.13
2022-12-15T03:28:10.487Z,15.84
2022-12-15T03:29:12.309Z,15.92
2022-12-15T03:30:14.957Z,15.47
2022-12-15T03:31:17.294Z,15.69
2022-12-15T03:32:19.202Z,15.60
2022-12-15T03:33:21.583Z,15.73
2022-12-15T03:34:23.455Z,15.39
2022-12-15T03:35:25.212Z,16.03
2022-12-15T03:36:27.023Z,15.78
2022-12-15T03:37:29.040Z,16.23
2022-12-15T03:38:30.833Z,16.06
2022-12-15T03:39:32.581Z,16.05
2022-12-15T03:40:34.498Z,16.08
2022-12-15T03:41:36.368Z,15.57
2022-12-15T03:42:50.356Z,15.55
2022-12-15T03:43:52.133Z,15.80
2022-12-15T03:44:53.895Z,16.16
2022-12-15T03:45:56.045Z,16.03
2022-12-15T03:47:02.955Z,16.30
2022-12-15T03:48:05.525Z,16.21
2022-12-15T03:49:07.396Z,15.48
2022-12-15T03:50:09.898Z,15.93
2022-12-15T03:51:11.699Z,15.41
2022-12-15T03:52:13.469Z,15.59
2022-12-15T03:53:15.290Z,15.38
2022-12-15T03:54:17.162Z,15.68
2022-12-15T03:55:19.820Z,15.89
2022-12-15T03:56:21.693Z,15.54
2022-12-15T03:57:23.565Z,16.17
2022-12-15T03:58:25.399Z,15.63
2022-12-15T03:59:27.307Z,15.50
2022-12-15T04:00:29.349Z,16.13
2022-12-15T04:01:33.804Z,15.98
2022-12-15T04:02:35.780Z,16.14
2022-12-15T04:03:37.803Z,15.98
2022-12-15T04:04:39.824Z,15.55
2022-12-15T04:05:41.789Z,15.42
2022-12-15T04:06:43.638Z,15.89
2022-12-15T04:07:45.536Z,15.60
2022-12-15T04:08:47.322Z,16.01
2022-12-15T04:09:51.706Z,16.19
2022-12-15T04:10:53.577Z,15.94
2022-12-15T04:11:55.418Z,15.42
2022-12-15T04:13:04.894Z,15.73
2022-12-15T04:14:06.723Z,16.12
2022-12-15T04:15:10.391Z,15.92
2022-12-15T04:16:17.815Z,15.80
2022-12-15T04:17:21.453Z,15.92
2022-12-15T04:18:23.289Z,16.14
2022-12-15T04:19:43.625Z,15.83
2022-12-15T04:20:45.406Z,15.97
2022-12-15T04:21:47.251Z,15.98
2022-12-15T04:22:50.311Z,15.57
2022-12-15T04:24:10.687Z,16.19
2022-12-15T04:25:33.499Z,15.37
2022-12-15T04:26:53.734Z,15.68
2022-12-15T04:28:14.681Z,15.25
2022-12-15T04:29:34.869Z,15.23
2022-12-15T04:30:55.877Z,15.45
2022-12-15T04:32:16.529Z,15.50
2022-12-15T04:33:38.079Z,15.43
2022-12-15T04:34:58.918Z,15.96
2022-12-15T04:36:19.653Z,15.28
2022-12-15T04:37:40.048Z,15.81
2022-12-15T04:39:00.497Z,15.13
2022-12-15T04:40:20.755Z,15.85
2022-12-15T04:41:42.193Z,15.72
2022-12-15T04:43:05.804Z,15.49
2022-12-15T04:44:26.350Z,15.54
2022-12-15T04:45:46.825Z,15.85
2022-12-15T04:47:06.866Z,15.48
2022-12-15T04:48:27.646Z,15.91
2022-12-15T04:49:48.182Z,15.49
2022-12-15T04:51:08.506Z,15.26
2022-12-15T04:52:28.814Z,16.09
2022-12-15T04:53:49.277Z,15.84
2022-12-15T04:55:09.482Z,15.64
2022-12-15T04:56:31.217Z,15.23
2022-12-15T04:57:51.746Z,15.84
2022-12-15T04:59:11.994Z,16.12
2022-12-15T05:00:33.036Z,15.50
2022-12-15T05:01:53.722Z,15.88
2022-12-15T05:03:29.866Z,15.92
2022-12-15T05:04:50.179Z,15.24
2022-12-15T05:06:11.099Z,15.69
2022-12-15T05:07:31.320Z,15.91
2022-12-15T05:08:51.645Z,15.12
2022-12-15T05:10:15.178Z,15.79
2022-12-15T05:11:35.708Z,15.24
2022-12-15T05:12:55.882Z,15.46
2022-12-15T05:14:16.077Z,15.71
2022-12-15T05:15:36.602Z,15.35
2022-12-15T05:16:57.357Z,15.76
2022-12-15T05:18:17.932Z,15.75
2022-12-15T05:19:38.116Z,15.42
2022-12-15T05:20:58.398Z,15.27
2022-12-15T05:22:18.665Z,16.10
2022-12-15T05:23:38.947Z,15.47
2022-12-15T05:24:59.204Z,15.57
2022-12-15T05:26:19.419Z,15.55
2022-12-15T05:27:39.687Z,16.13
2022-12-15T05:28:59.895Z,16.01
2022-12-15T05:30:20.103Z,15.92
2022-12-15T05:31:40.499Z,15.74
2022-12-15T05:32:42.270Z,15.38
2022-12-15T05:33:44.019Z,16.08
2022-12-15T05:34:45.810Z,15.88
2022-12-15T05:35:47.553Z,16.13
2022-12-15T05:36:50.451Z,15.72
2022-12-15T05:37:52.320Z,16.09
2022-12-15T05:38:54.161Z,15.63
2022-12-15T05:39:56.013Z,15.52
2022-12-15T05:40:59.413Z,15.87
2022-12-15T05:42:01.276Z,15.87
2022-12-15T05:43:03.333Z,16.07
2022-12-15T05:44:05.427Z,15.78
2022-12-15T05:45:07.716Z,15.41
2022-12-15T05:46:09.553Z,15.54
2022-12-15T05:47:11.932Z,16.16
2022-12-15T05:48:14.742Z,15.96
2022-12-15T05:49:17.910Z,15.52
2022-12-15T05:50:21.021Z,15.27
2022-12-15T05:51:23.061Z,15.93
2022-12-15T05:52:24.953Z,15.63
2022-12-15T05:53:26.780Z,15.79
2022-12-15T05:54:28.573Z,15.55
2022-12-15T05:55:30.392Z,16.10
2022-12-15T05:56:32.349Z,15.67
2022-12-15T05:57:34.095Z,15.72
2022-12-15T05:58:41.377Z,15.80
2022-12-15T05:59:46.501Z,15.73
2022-12-15T06:00:48.314Z,16.03
2022-12-15T06:01:50.238Z,15.26
2022-12-15T06:02:52.103Z,15.63
2022-12-15T06:03:53.953Z,15.63
2022-12-15T06:04:55.803Z,15.32
2022-12-15T06:05:58.462Z,15.47
2022-12-15T06:07:00.228Z,16.07
2022-12-15T06:08:02.042Z,15.16
2022-12-15T06:09:04.142Z,15.69
2022-12-15T06:10:06.319Z,15.17
2022-12-15T06:11:10.061Z,15.25
2022-12-15T06:12:12.025Z,15.39
2022-12-15T06:13:13.946Z,14.97
2022-12-15T06:14:15.848Z,15.22
2022-12-15T06:15:17.614Z,15.33
2022-12-15T06:16:21.875Z,15.20
2022-12-15T06:17:23.687Z,15.36
2022-12-15T06:18:28.707Z,15.42
2022-12-15T06:19:30.553Z,15.10
2022-12-15T06:20:32.318Z,15.02
2022-12-15T06:21:35.941Z,15.71
2022-12-15T06:22:37.783Z,15.06
2022-12-15T06:23:40.730Z,15.53
2022-12-15T06:24:42.590Z,15.16
2022-12-15T06:25:44.461Z,15.26
2022-12-15T06:26:46.874Z,15.48
2022-12-15T06:27:51.731Z,15.30
2022-12-15T06:28:56.982Z,15.03
2022-12-15T06:29:58.911Z,15.02
2022-12-15T06:31:04.337Z,15.27
2022-12-15T06:32:06.210Z,15.01
2022-12-15T06:33:08.050Z,15.07
2022-12-15T06:34:15.801Z,14.77
2022-12-15T06:35:17.599Z,14.67
2022-12-15T06:36:19.946Z,15.26
2022-12-15T06:37:21.803Z,14.62
2022-12-15T06:38:23.562Z,15.14
2022-12-15T06:39:25.393Z,15.09
2022-12-15T06:40:27.753Z,14.69
2022-12-15T06:41:30.704Z,15.10
2022-12-15T06:42:32.725Z,14.84
2022-12-15T06:43:35.143Z,14.72
2022-12-15T06:44:37.077Z,14.25
2022-12-15T06:45:38.845Z,14.55
2022-12-15T06:46:40.726Z,14.51
2022-12-15T06:47:42.631Z,14.78
2022-12-15T06:48:46.033Z,14.33
2022-12-15T06:49:47.867Z,14.17
2022-12-15T06:50:50.519Z,14.26
2022-12-15T06:51:52.446Z,14.26
2022-12-15T06:52:54.222Z,14.48
2022-12-15T06:53:56.530Z,14.46
2022-12-15T06:54:58.462Z,14.03
2022-12-15T06:56:05.467Z,14.08
2022-12-15T06:57:07.210Z,14.17
2022-12-15T06:58:09.704Z,14.40
2022-12-15T06:59:12.130Z,14.20
2022-12-15T07:00:15.478Z,14.42
2022-12-15T07:01:18.580Z,14.08
2022-12-15T07:02:25.324Z,14.28
2022-12-15T07:03:31.196Z,14.38
2022-12-15T07:04:33.760Z,14.60
2022-12-15T07:05:35.737Z,14.21
2022-12-15T07:06:39.211Z,14.21
2022-12-15T07:07:41.023Z,14.62
2022-12-15T07:08:44.337Z,13.80
2022-12-15T07:09:46.149Z,14.44
2022-12-15T07:10:47.921Z,13.88
2022-12-15T07:11:51.444Z,13.70
2022-12-15T07:12:56.087Z,13.92
2022-12-15T07:13:57.983Z,13.77
2022-12-15T07:15:00.017Z,14.31
2022-12-15T07:16:03.617Z,14.39
2022-12-15T07:17:05.423Z,14.45
2022-12-15T07:18:07.938Z,14.13
2022-12-15T07:19:13.186Z,14.23
2022-12-15T07:20:15.145Z,13.86
2022-12-15T07:21:17.313Z,14.11
2022-12-15T07:22:20.442Z,14.11
2022-12-15T07:23:34.416Z,14.02
2022-12-15T07:24:44.516Z,13.98
2022-12-15T07:25:46.443Z,14.22
2022-12-15T07:26:48.940Z,14.00
2022-12-15T07:27:50.930Z,14.07
2022-12-15T07:28:54.198Z,13.96
2022-12-15T07:29:56.242Z,14.52
2022-12-15T07:31:07.465Z,13.84
2022-12-15T07:32:09.297Z,13.69
2022-12-15T07:33:11.151Z,14.12
2022-12-15T07:34:12.957Z,14.41
2022-12-15T07:35:14.837Z,14.19
2022-12-15T07:36:16.730Z,13.82
2022-12-15T07:37:18.546Z,14.23
2022-12-15T07:38:20.318Z,14.22
2022-12-15T07:39:22.101Z,13.67
2022-12-15T07:40:23.920Z,14.24
2022-12-15T07:41:25.872Z,13.62
2022-12-15T07:42:30.873Z,14.12
2022-12-15T07:43:33.618Z,14.02
2022-12-15T07:44:36.084Z,14.31
2022-12-15T07:45:37.951Z,13.66
2022-12-15T07:46:39.801Z,13.72
2022-12-15T07:47:41.706Z,13.75
2022-12-15T07:48:43.753Z,14.15
2022-12-15T07:49:46.069Z,13.80
2022-12-15T07:50:47.999Z,14.41
2022-12-15T07:51:52.345Z,13.58
2022-12-15T07:52:54.778Z,13.65
2022-12-15T07:53:56.589Z,14.20
2022-12-15T07:54:58.570Z,13.98
2022-12-15T07:56:08.493Z,13.79
2022-12-15T07:57:11.274Z,13.94
2022-12-15T07:58:13.119Z,13.81
2022-12-15T07:59:14.938Z,13.94
2022-12-15T08:00:17.710Z,14.28
2022-12-15T08:01:19.714Z,14.03
2022-12-15T08:02:21.723Z,14.12
2022-12-15T08:03:24.556Z,14.02
2022-12-15T08:04:27.398Z,14.30
2022-12-15T08:05:29.352Z,14.22
2022-12-15T08:06:31.142Z,14.03
2022-12-15T08:07:32.918Z,14.03
2022-12-15T08:08:35.670Z,14.40
2022-12-15T08:09:37.869Z,14.29
2022-12-15T08:10:40.201Z,14.02
2022-12-15T08:11:43.210Z,13.87
2022-12-15T08:12:45.061Z,13.59
2022-12-15T08:14:03.932Z,13.65
2022-12-15T08:15:07.407Z,14.22
2022-12-15T08:16:09.504Z,14.00
2022-12-15T08:17:11.355Z,14.04
2022-12-15T08:18:13.551Z,13.93
2022-12-15T08:19:17.741Z,13.72
2022-12-15T08:20:19.508Z,14.12
2022-12-15T08:21:21.350Z,13.91
2022-12-15T08:22:23.102Z,13.87
2022-12-15T08:23:24.864Z,14.00
2022-12-15T08:24:26.636Z,13.66
2022-12-15T08:25:28.922Z,14.33
2022-12-15T08:26:31.605Z,14.07
2022-12-15T08:27:33.600Z,13.86
2022-12-15T08:28:36.635Z,13.52
2022-12-15T08:29:53.799Z,13.57
2022-12-15T08:30:55.616Z,13.61
2022-12-15T08:31:57.609Z,13.96
2022-12-15T08:32:59.548Z,13.95
2022-12-15T08:34:04.553Z,13.81
2022-12-15T08:35:25.307Z,13.98
2022-12-15T08:36:30.748Z,14.22
2022-12-15T08:37:32.566Z,13.62
2022-12-15T08:38:35.428Z,13.91
2022-12-15T08:39:37.349Z,13.97
2022-12-15T08:40:39.165Z,14.15
2022-12-15T08:41:41.289Z,14.30
2022-12-15T08:42:43.814Z,13.78
2022-12-15T08:43:49.388Z,13.76
2022-12-15T08:44:51.973Z,14.32
2022-12-15T08:45:53.832Z,13.92
2022-12-15T08:46:55.616Z,14.05
2022-12-15T08:47:57.542Z,13.88
2022-12-15T08:49:00.633Z,13.67
2022-12-15T08:50:02.533Z,14.09
2022-12-15T08:51:05.008Z,13.66
2022-12-15T08:52:06.794Z,14.13
2022-12-15T08:54:33.031Z,14.23
2022-12-15T08:55:34.862Z,13.92
2022-12-15T08:56:36.736Z,14.02
2022-12-15T08:57:39.172Z,14.11
2022-12-15T08:58:41.158Z,13.75
2022-12-15T08:59:42.947Z,13.65
2022-12-15T09:00:45.045Z,14.04
2022-12-15T09:01:47.120Z,13.63
2022-12-15T09:02:49.121Z,14.00
2022-12-15T09:03:53.955Z,13.69
2022-12-15T09:04:55.908Z,14.03
2022-12-15T09:06:02.674Z,14.20
2022-12-15T09:07:04.781Z,14.37
2022-12-15T09:08:07.034Z,14.07
2022-12-15T09:09:11.779Z,14.00
2022-12-15T09:10:13.550Z,13.96
2022-12-15T09:11:15.468Z,14.26
2022-12-15T09:12:17.414Z,13.71
2022-12-15T09:13:19.303Z,13.84
2022-12-15T09:14:27.284Z,14.08
2022-12-15T09:16:07.223Z,14.31
2022-12-15T09:16:52.969Z,13.83
2022-12-15T09:17:54.819Z,13.78
2022-12-15T09:18:59.036Z,14.14
2022-12-15T09:20:01.184Z,14.11
2022-12-15T09:21:06.440Z,14.42
2022-12-15T09:22:08.273Z,14.40
2022-12-15T09:23:10.045Z,13.63
2022-12-15T09:24:23.172Z,13.90
2022-12-15T09:25:28.054Z,13.65
2022-12-15T09:26:32.342Z,14.02
2022-12-15T09:27:35.031Z,13.80
2022-12-15T09:28:40.533Z,14.23
2022-12-15T09:29:42.478Z,13.65
2022-12-15T09:30:44.492Z,13.91
2022-12-15T09:31:46.718Z,13.60
2022-12-15T09:32:48.478Z,14.33
2022-12-15T09:33:52.531Z,13.75
2022-12-15T09:34:54.636Z,14.07
2022-12-15T09:35:56.487Z,13.84
2022-12-15T09:36:58.407Z,13.66
2022-12-15T09:38:00.383Z,14.06
2022-12-15T09:39:03.218Z,13.82
2022-12-15T09:40:06.681Z,14.28
2022-12-15T09:41:20.117Z,13.69
2022-12-15T09:42:30.324Z,13.93
2022-12-15T09:43:34.689Z,14.39
2022-12-15T09:44:38.227Z,13.94
2022-12-15T09:45:45.484Z,13.94
2022-12-15T09:47:08.615Z,13.73
2022-12-15T09:48:17.082Z,14.27
2022-12-15T09:49:36.840Z,13.98
2022-12-15T09:50:41.069Z,14.38
2022-12-15T09:51:54.712Z,13.92
2022-12-15T09:53:00.575Z,13.73
2022-12-15T09:54:03.095Z,13.64
2022-12-15T09:55:27.601Z,14.04
2022-12-15T09:56:44.252Z,13.68
2022-12-15T09:57:57.663Z,13.88
2022-12-15T09:59:17.521Z,13.67
2022-12-15T10:00:31.203Z,13.89
2022-12-15T10:02:00.523Z,13.77
2022-12-15T10:03:32.417Z,13.64
2022-12-15T10:04:34.602Z,14.09
2022-12-15T10:06:14.741Z,13.62
2022-12-15T10:07:27.555Z,14.29
2022-12-15T10:08:33.077Z,14.33
2022-12-15T10:09:36.988Z,13.80
2022-12-15T10:10:48.917Z,14.17
2022-12-15T10:12:11.354Z,14.48
2022-12-15T10:13:24.964Z,14.00
2022-12-15T10:14:35.867Z,13.99
2022-12-15T10:15:56.968Z,14.13
2022-12-15T10:17:04.930Z,13.98
2022-12-15T10:18:18.851Z,13.62
2022-12-15T10:19:37.008Z,13.73
2022-12-15T10:20:38.950Z,14.45
2022-12-15T10:21:41.357Z,13.79
2022-12-15T10:22:43.172Z,14.17
2022-12-15T10:23:45.135Z,14.36
2022-12-15T10:26:25.875Z,13.83
2022-12-15T10:27:49.228Z,14.03
2022-12-15T10:29:33.011Z,14.25
2022-12-15T10:30:35.647Z,14.21
2022-12-15T10:32:00.405Z,14.20
2022-12-15T10:33:02.110Z,14.21
2022-12-15T10:34:24.155Z,14.23
2022-12-15T10:35:34.652Z,14.07
2022-12-15T10:36:36.481Z,14.01
2022-12-15T10:37:39.172Z,13.98
2022-12-15T10:38:45.474Z,14.05
2022-12-15T10:39:50.320Z,14.10
2022-12-15T10:41:12.667Z,14.12
2022-12-15T10:42:22.089Z,13.89
2022-12-15T10:43:29.651Z,13.93
2022-12-15T10:44:38.068Z,13.62
2022-12-15T10:45:40.014Z,14.18
2022-12-15T10:46:44.400Z,13.54
2022-12-15T10:47:58.951Z,13.91
2022-12-15T10:49:06.498Z,13.61
2022-12-15T10:50:25.332Z,13.94
2022-12-15T10:51:32.840Z,14.24
2022-12-15T10:52:37.332Z,14.03
2022-12-15T10:53:50.243Z,13.64
2022-12-15T10:55:36.455Z,14.29
2022-12-15T10:57:20.673Z,13.47
2022-12-15T10:58:23.325Z,14.27
2022-12-15T10:59:33.776Z,13.59
2022-12-15T11:00:35.926Z,13.75
2022-12-15T11:01:37.853Z,13.50
2022-12-15T11:02:42.219Z,14.28
2022-12-15T11:03:45.909Z,14.03
2022-12-15T11:04:56.142Z,14.09
2022-12-15T11:05:57.927Z,14.12
2022-12-15T11:07:02.296Z,14.28
2022-12-15T11:08:22.971Z,13.93
2022-12-15T11:09:39.316Z,13.87
2022-12-15T11:11:16.695Z,13.53
2022-12-15T11:12:40.355Z,14.27
2022-12-15T11:13:43.515Z,13.58
2022-12-15T11:14:51.289Z,13.92
2022-12-15T11:15:56.490Z,13.73
2022-12-15T11:16:59.649Z,13.76
2022-12-15T11:18:27.129Z,13.89
2022-12-15T11:19:40.780Z,13.58
2022-12-15T11:20:50.565Z,13.56
2022-12-15T11:21:59.920Z,14.39
2022-12-15T11:23:13.310Z,14.08
2022-12-15T11:24:21.613Z,14.31
2022-12-15T11:25:42.848Z,13.67
2022-12-15T11:27:02.113Z,13.57
2022-12-15T11:28:12.536Z,14.20
2022-12-15T11:29:23.451Z,13.56
2022-12-15T11:30:33.819Z,14.26
2022-12-15T11:31:38.909Z,14.33
2022-12-15T11:32:48.921Z,13.70
2022-12-15T11:33:55.008Z,14.13
2022-12-15T11:34:57.089Z,14.10
2022-12-15T11:36:34.060Z,13.69
2022-12-15T11:37:52.069Z,13.88
2022-12-15T11:39:04.026Z,14.30
2022-12-15T11:40:42.561Z,13.94
2022-12-15T11:41:53.316Z,14.23
2022-12-15T11:43:11.056Z,14.20
2022-12-15T11:44:24.958Z,14.21
2022-12-15T11:45:50.980Z,13.92
2022-12-15T11:46:58.844Z,14.33
2022-12-15T11:48:38.619Z,14.19
2022-12-15T11:51:24.415Z,14.10
2022-12-15T11:52:40.753Z,13.64
2022-12-15T11:54:30.061Z,14.38
2022-12-15T11:55:52.788Z,13.63
2022-12-15T11:57:17.821Z,14.23
2022-12-15T11:58:41.082Z,14.42
2022-12-15T11:59:59.076Z,13.73
2022-12-15T12:01:23.850Z,14.05
2022-12-15T12:03:02.055Z,14.07
2022-12-15T12:04:17.744Z,14.07
2022-12-15T12:05:41.057Z,13.67
2022-12-15T12:06:55.615Z,14.07
2022-12-15T12:08:22.111Z,14.30
2022-12-15T12:09:46.869Z,14.47
2022-12-15T12:11:14.010Z,13.74
2022-12-15T12:12:30.449Z,14.08
2022-12-15T12:13:42.968Z,14.41
2022-12-15T12:15:15.173Z,14.48
2022-12-15T12:16:36.071Z,14.50
2022-12-15T12:17:46.027Z,14.45
2022-12-15T12:19:13.190Z,14.68
2022-12-15T12:20:19.348Z,14.29
2022-12-15T12:21:27.474Z,14.05
2022-12-15T12:22:36.078Z,14.59
2022-12-15T12:23:40.552Z,14.21
2022-12-15T12:24:48.869Z,14.35
2022-12-15T12:26:08.033Z,13.89
2022-12-15T12:27:09.733Z,14.44
2022-12-15T12:28:22.970Z,13.87
2022-12-15T12:29:35.526Z,14.08
2022-12-15T12:30:50.436Z,14.27
2022-12-15T12:32:04.498Z,14.48
2022-12-15T12:33:15.265Z,14.08
2022-12-15T12:34:29.380Z,14.22
2022-12-15T12:35:34.016Z,14.25
2022-12-15T12:36:36.401Z,14.17
2022-12-15T12:37:51.076Z,13.83
2022-12-15T12:38:58.233Z,14.15
2022-12-15T12:40:07.772Z,14.27
2022-12-15T12:42:01.752Z,14.45
2022-12-15T12:43:08.625Z,14.17
2022-12-15T12:44:29.754Z,14.38
2022-12-15T12:45:37.172Z,13.91
2022-12-15T12:46:49.237Z,14.29
2022-12-15T12:47:57.198Z,14.15
2022-12-15T12:49:04.699Z,14.19
2022-12-15T12:50:25.208Z,13.99
2022-12-15T12:51:30.737Z,13.64
2022-12-15T12:52:37.038Z,13.89
2022-12-15T12:53:38.762Z,14.16
2022-12-15T12:54:43.043Z,14.13
2022-12-15T12:55:44.794Z,14.08
2022-12-15T12:56:48.688Z,14.14
2022-12-15T12:57:53.666Z,14.23
2022-12-15T12:58:55.431Z,14.05
2022-12-15T13:00:01.215Z,13.88
2022-12-15T13:01:05.722Z,14.22
2022-12-15T13:02:45.490Z,14.12
2022-12-15T13:04:06.817Z,14.01
2022-12-15T13:05:35.597Z,14.38
2022-12-15T13:06:40.216Z,14.36
2022-12-15T13:07:41.928Z,14.27
2022-12-15T13:08:51.056Z,14.51
2022-12-15T13:10:17.276Z,14.27
2022-12-15T13:12:20.942Z,13.69
2022-12-15T13:13:32.406Z,13.40
2022-12-15T13:14:54.759Z,14.14
2022-12-15T13:16:02.729Z,14.07
2022-12-15T13:17:26.328Z,14.11
2022-12-15T13:18:29.598Z,14.29
2022-12-15T13:20:10.781Z,13.66
2022-12-15T13:21:41.667Z,14.32
2022-12-15T13:22:43.654Z,13.74
2022-12-15T13:23:46.173Z,14.00
2022-12-15T13:24:52.368Z,14.23
2022-12-15T13:25:57.050Z,13.80
2022-12-15T13:27:20.045Z,14.47
2022-12-15T13:28:42.862Z,14.09
2022-12-15T13:30:14.529Z,13.73
2022-12-15T13:31:16.744Z,14.08
2022-12-15T13:32:37.280Z,13.79
2022-12-15T13:33:51.150Z,14.05
2022-12-15T13:34:53.241Z,13.70
2022-12-15T13:35:55.259Z,14.33
2022-12-15T13:36:58.245Z,14.48
2022-12-15T13:38:04.243Z,14.46
2022-12-15T13:39:29.022Z,14.45
2022-12-15T13:40:36.921Z,14.02
2022-12-15T13:42:15.315Z,14.39
2022-12-15T13:43:29.536Z,14.31
2022-12-15T13:44:40.585Z,14.43
2022-12-15T13:45:45.328Z,14.31
2022-12-15T13:46:54.434Z,13.78
2022-12-15T13:47:56.421Z,14.25
2022-12-15T13:49:33.309Z,13.66
2022-12-15T13:50:53.329Z,14.18
2022-12-15T13:52:10.839Z,14.04
2022-12-15T13:53:19.675Z,13.99
2022-12-15T13:54:29.253Z,14.47
2022-12-15T13:55:38.193Z,14.38
2022-12-15T13:56:51.129Z,14.49
2022-12-15T13:58:02.901Z,13.83
2022-12-15T13:59:13.493Z,14.17
2022-12-15T14:00:18.561Z,14.20
2022-12-15T14:02:48.887Z,13.97
2022-12-15T14:04:07.403Z,14.27
2022-12-15T14:05:11.733Z,13.68
2022-12-15T14:06:15.360Z,14.13
2022-12-15T14:07:17.139Z,13.74
2022-12-15T14:08:21.889Z,14.42
2022-12-15T14:09:34.081Z,14.38
2022-12-15T14:10:50.838Z,14.16
2022-12-15T14:11:54.158Z,14.32
2022-12-15T14:13:26.957Z,14.41
2022-12-15T14:14:32.264Z,13.67
2022-12-15T14:15:34.442Z,13.69
2022-12-15T14:16:36.497Z,13.99
2022-12-15T14:17:38.710Z,13.91
2022-12-15T14:18:42.559Z,14.10
2022-12-15T14:19:50.897Z,13.79
2022-12-15T14:20:53.571Z,14.30
2022-12-15T14:21:57.731Z,14.45
2022-12-15T14:23:00.693Z,13.78
2022-12-15T14:25:28.020Z,14.09
2022-12-15T14:26:31.811Z,14.17
2022-12-15T14:27:34.101Z,14.07
2022-12-15T14:28:37.510Z,14.57
2022-12-15T14:29:39.266Z,13.93
2022-12-15T14:30:41.423Z,13.96
2022-12-15T14:31:49.716Z,13.89
2022-12-15T14:33:16.272Z,13.76
2022-12-15T14:34:33.279Z,13.78
2022-12-15T14:35:43.301Z,14.18
2022-12-15T14:36:46.086Z,13.96
2022-12-15T14:37:48.991Z,13.92
2022-12-15T14:38:54.146Z,13.47
2022-12-15T14:39:56.169Z,13.76
2022-12-15T14:41:02.176Z,14.15
2022-12-15T14:42:05.607Z,14.38
2022-12-15T14:43:15.796Z,14.49
2022-12-15T14:44:38.020Z,13.88
2022-12-15T14:45:40.881Z,13.75
2022-12-15T14:46:48.082Z,14.13
2022-12-15T14:48:21.560Z,14.34
2022-12-15T14:49:31.802Z,13.70
2022-12-15T14:50:34.357Z,13.97
2022-12-15T14:51:46.386Z,14.11
2022-12-15T14:52:57.938Z,14.16
2022-12-15T14:53:59.723Z,14.34
2022-12-15T14:55:04.852Z,14.13
2022-12-15T14:56:32.937Z,13.72
2022-12-15T14:57:46.531Z,14.24
2022-12-15T14:59:18.874Z,14.09
2022-12-15T15:00:29.517Z,13.67
2022-12-15T15:01:41.080Z,13.78
2022-12-15T15:02:43.130Z,14.33
2022-12-15T15:03:06.549Z,14.06
2022-12-15T15:03:09.801Z,14.29